Time;durP1;ratioP1;P1;durP2;ratioP2;P2;SDS_P1;SDS_P2;PMS_P1;PMS_P2;Temp;Humidity;BMP_temperature;BMP_pressure;BME280_temperature;BME280_humidity;BME280_pressure;Samples;Min_cycle;Max_cycle;Signal;HPM_P1;HPM_P2
2022/12/02 00:00:14;;;;;;;0.60;0.60;;;;;;;2.44;96.01;97228.06;29395;233;63009;-55
2022/12/02 00:00:49;;;;;;;0.60;0.60;;;;;;;2.39;96.13;97236.84;29394;245;64009;-64
2022/12/02 00:01:21;;;;;;;1.92;1.83;;;;;;;2.39;96.17;97238.69;29395;199;63009;-64
2022/12/02 00:01:57;;;;;;;0.60;0.60;;;;;;;2.37;96.21;97230.91;29395;226;63004;-63
2022/12/02 00:02:33;;;;;;;0.70;0.70;;;;;;;2.38;96.44;97237.06;29395;225;63008;-65
2022/12/02 00:03:10;;;;;;;0.55;0.55;;;;;;;2.40;97.01;97234.97;29395;212;63005;-62
2022/12/02 00:03:42;;;;;;;0.60;0.60;;;;;;;2.40;97.15;97235.78;29395;206;63009;-55
2022/12/02 00:04:27;;;;;;;0.60;0.60;;;;;;;2.46;96.69;97237.50;29395;203;63005;-64
2022/12/02 00:05:24;;;;;;;0.60;0.60;;;;;;;2.44;96.69;97234.25;29395;219;63019;-63
2022/12/02 00:05:57;;;;;;;0.60;0.60;;;;;;;2.41;96.53;97232.06;29394;233;64009;-63
2022/12/02 00:06:30;;;;;;;0.60;0.60;;;;;;;2.39;96.51;97230.66;29395;239;63026;-64
2022/12/02 00:07:05;;;;;;;0.60;0.60;;;;;;;2.37;96.50;97230.91;29395;202;63004;-65
2022/12/02 00:07:37;;;;;;;0.60;0.60;;;;;;;2.35;96.63;97230.31;29395;206;63009;-63
2022/12/02 00:08:19;;;;;;;0.60;0.60;;;;;;;2.34;96.67;97223.31;29395;213;63004;-62
2022/12/02 00:08:54;;;;;;;0.80;0.80;;;;;;;2.43;97.27;97226.44;29395;302;63009;-55
2022/12/02 00:09:35;;;;;;;0.57;0.57;;;;;;;2.57;96.18;97225.16;29395;284;63004;-61
2022/12/02 00:10:27;;;;;;;0.95;0.95;;;;;;;2.72;94.93;97238.09;29417;238;63009;-57
2022/12/02 00:11:01;;;;;;;0.60;0.60;;;;;;;2.72;94.56;97232.75;29416;229;64014;-66
2022/12/02 00:11:32;;;;;;;0.60;0.60;;;;;;;2.66;94.35;97235.31;29395;214;63005;-55
2022/12/02 00:12:21;;;;;;;0.98;0.98;;;;;;;2.54;94.49;97229.13;29395;295;63009;-64
2022/12/02 00:12:53;;;;;;;1.30;1.30;;;;;;;2.49;94.58;97229.00;29395;200;63005;-63
2022/12/02 00:13:33;;;;;;;0.60;0.60;;;;;;;2.45;94.82;97233.19;29395;240;63017;-63
2022/12/02 00:14:28;;;;;;;0.60;0.60;;;;;;;2.44;95.30;97230.75;29395;224;63005;-55
2022/12/02 00:15:21;;;;;;;0.60;0.60;;;;;;;2.43;95.77;97221.91;29395;235;63009;-63
2022/12/02 00:16:03;;;;;;;0.65;0.65;;;;;;;2.43;96.23;97229.13;29395;213;63004;-64
2022/12/02 00:16:34;;;;;;;0.60;0.60;;;;;;;2.40;96.37;97219.72;29394;235;64013;-64
2022/12/02 00:17:06;;;;;;;0.60;0.60;;;;;;;2.38;96.20;97224.50;29395;223;63006;-55
2022/12/02 00:17:37;;;;;;;0.60;0.60;;;;;;;2.35;96.43;97227.63;29395;249;63008;-54
2022/12/02 00:18:13;;;;;;;0.60;0.60;;;;;;;2.34;96.46;97226.81;29395;249;63005;-65
2022/12/02 00:18:45;;;;;;;0.50;0.50;;;;;;;2.31;96.58;97226.47;29395;240;63009;-64
2022/12/02 00:19:17;;;;;;;0.52;0.52;;;;;;;2.30;96.71;97224.81;29395;284;63005;-64
2022/12/02 00:19:48;;;;;;;0.80;0.80;;;;;;;2.32;97.01;97222.75;29395;268;63017;-64
2022/12/02 00:20:19;;;;;;;0.60;0.60;;;;;;;2.39;97.17;97228.81;29395;214;63005;-54
2022/12/02 00:20:51;;;;;;;0.50;0.50;;;;;;;2.42;96.50;97222.97;29395;202;63009;-54
2022/12/02 00:21:25;;;;;;;0.50;0.50;;;;;;;2.40;96.67;97225.06;29395;229;63005;-54
2022/12/02 00:21:56;;;;;;;0.60;0.60;;;;;;;2.38;96.30;97224.50;29394;224;64013;-55
2022/12/02 00:22:27;;;;;;;0.52;0.52;;;;;;;2.36;96.36;97223.91;29395;244;63004;-64
2022/12/02 00:23:01;;;;;;;0.95;0.95;;;;;;;2.47;96.28;97215.03;29395;234;63009;-62
2022/12/02 00:23:32;;;;;;;0.60;0.60;;;;;;;2.47;95.92;97220.41;29395;289;63014;-63
2022/12/02 00:24:04;;;;;;;0.60;0.60;;;;;;;2.49;95.70;97218.28;29395;212;63009;-65
2022/12/02 00:24:36;;;;;;;0.90;0.90;;;;;;;2.57;95.30;97215.28;29395;196;63004;-55
2022/12/02 00:25:08;;;;;;;0.60;0.60;;;;;;;2.61;94.98;97221.78;29395;203;63008;-65
2022/12/02 00:25:42;;;;;;;0.60;0.60;;;;;;;2.56;94.54;97219.00;29395;286;63005;-65
2022/12/02 00:26:13;;;;;;;0.60;0.60;;;;;;;2.50;94.57;97214.56;29395;237;63009;-55
2022/12/02 00:26:45;;;;;;;1.42;1.42;;;;;;;2.51;95.18;97218.87;29395;236;63005;-55
2022/12/02 00:27:17;;;;;;;0.70;0.70;;;;;;;2.49;95.26;97217.47;29394;224;64013;-64
2022/12/02 00:27:48;;;;;;;0.60;0.60;;;;;;;2.44;95.19;97212.81;29395;248;63005;-55
2022/12/02 00:28:20;;;;;;;0.80;0.80;;;;;;;2.42;95.48;97208.78;29395;230;63009;-64
2022/12/02 00:28:51;;;;;;;0.60;0.60;;;;;;;2.39;95.65;97207.38;29395;203;63005;-64
2022/12/02 00:29:22;;;;;;;0.60;0.60;;;;;;;2.35;95.61;97207.03;29394;220;64013;-55
2022/12/02 00:29:54;;;;;;;0.60;0.60;;;;;;;2.33;95.97;97208.31;29395;202;63004;-55
2022/12/02 00:30:25;;;;;;;0.60;0.60;;;;;;;2.30;96.05;97206.09;29395;238;63009;-63
2022/12/02 00:30:57;;;;;;;0.60;0.60;;;;;;;2.28;96.49;97209.00;29395;234;63004;-55
2022/12/02 00:31:28;;;;;;;0.60;0.60;;;;;;;2.27;96.50;97209.22;29395;235;63009;-64
2022/12/02 00:31:59;;;;;;;0.60;0.60;;;;;;;2.25;96.59;97204.09;29395;291;63004;-55
2022/12/02 00:32:31;;;;;;;0.60;0.60;;;;;;;2.28;96.89;97208.19;29395;211;63008;-55
2022/12/02 00:33:02;;;;;;;0.75;0.75;;;;;;;2.29;97.17;97212.50;29395;229;63005;-63
2022/12/02 00:33:33;;;;;;;0.60;0.60;;;;;;;2.29;97.35;97207.12;29395;220;63009;-64
2022/12/02 00:34:05;;;;;;;0.65;0.65;;;;;;;2.35;97.50;97208.88;29394;212;64009;-55
2022/12/02 00:34:36;;;;;;;0.60;0.60;;;;;;;2.35;97.01;97206.22;29395;338;63009;-56
2022/12/02 00:35:08;;;;;;;1.17;1.17;;;;;;;2.36;96.85;97207.84;29395;205;63000;-62
2022/12/02 00:35:44;;;;;;;0.70;0.70;;;;;;;2.38;96.70;97203.06;29395;242;63009;-65
2022/12/02 00:36:15;;;;;;;0.60;0.60;;;;;;;2.36;96.89;97207.84;29395;239;63005;-65
2022/12/02 00:36:50;;;;;;;0.60;0.60;;;;;;;2.34;96.80;97212.59;29395;271;63009;-55
2022/12/02 00:37:23;;;;;;;0.60;0.60;;;;;;;2.31;96.97;97215.75;29395;326;63004;-55
2022/12/02 00:37:54;;;;;;;0.60;0.60;;;;;;;2.29;97.03;97207.12;29395;306;63009;-55
2022/12/02 00:38:26;;;;;;;0.60;0.60;;;;;;;2.29;97.28;97217.84;29395;197;63004;-55
2022/12/02 00:39:00;;;;;;;0.60;0.60;;;;;;;2.29;97.38;97209.81;29395;196;63009;-61
2022/12/02 00:39:32;;;;;;;0.60;0.60;;;;;;;2.31;97.76;97210.41;29394;197;64008;-63
2022/12/02 00:40:05;;;;;;;0.60;0.60;;;;;;;2.31;97.74;97207.72;29395;216;63008;-64
2022/12/02 00:40:36;;;;;;;0.60;0.60;;;;;;;2.32;97.85;97207.47;29395;225;63005;-56
2022/12/02 00:41:07;;;;;;;0.60;0.60;;;;;;;2.39;97.67;97212.72;29395;353;63009;-61
2022/12/02 00:41:42;;;;;;;0.70;0.70;;;;;;;2.45;96.94;97201.06;29395;207;63005;-56
2022/12/02 00:42:13;;;;;;;1.02;1.02;;;;;;;2.52;96.37;97211.66;29395;226;63009;-62
2022/12/02 00:42:44;;;;;;;0.60;0.60;;;;;;;2.58;96.12;97208.06;29395;214;63005;-62
2022/12/02 00:46:51;;;;;;;0.70;0.70;;;;;;;2.54;95.35;97205.03;29394;211;64013;-65
2022/12/02 00:47:22;;;;;;;0.60;0.60;;;;;;;2.52;95.13;97203.63;29395;236;63004;-64
2022/12/02 00:47:53;;;;;;;0.60;0.60;;;;;;;2.48;95.42;97199.78;29395;216;63009;-64
2022/12/02 00:48:26;;;;;;;0.60;0.60;;;;;;;2.44;95.30;97204.78;29395;210;63010;-63
2022/12/02 00:48:59;;;;;;;0.60;0.60;;;;;;;2.41;95.76;97199.94;29395;214;63009;-55
2022/12/02 00:49:30;;;;;;;0.60;0.60;;;;;;;2.37;95.86;97201.44;29395;214;63005;-55
2022/12/02 00:50:02;;;;;;;0.60;0.60;;;;;;;2.33;95.99;97202.94;29395;227;63009;-65
2022/12/02 00:50:33;;;;;;;0.60;0.60;;;;;;;2.29;96.15;97201.78;29395;231;63005;-55
2022/12/02 00:51:05;;;;;;;0.60;0.60;;;;;;;2.27;96.33;97198.50;29395;249;63019;-55
2022/12/02 00:51:37;;;;;;;0.60;0.60;;;;;;;2.26;96.92;97196.87;29395;234;63004;-64
2022/12/02 00:52:09;;;;;;;0.60;0.60;;;;;;;2.23;97.13;97200.84;29394;198;64013;-55
2022/12/02 00:52:40;;;;;;;0.60;0.60;;;;;;;2.20;97.04;97198.63;29395;215;63004;-54
2022/12/02 00:53:11;;;;;;;0.55;0.55;;;;;;;2.20;97.21;97197.81;29395;230;63009;-55
2022/12/02 00:53:44;;;;;;;0.60;0.60;;;;;;;2.19;97.36;97201.53;29395;222;63003;-54
2022/12/02 00:54:15;;;;;;;0.60;0.60;;;;;;;2.19;97.62;97201.53;29395;196;63008;-55
2022/12/02 00:54:47;;;;;;;0.68;0.68;;;;;;;2.19;97.63;97204.22;29395;196;63004;-61
2022/12/02 00:55:18;;;;;;;0.60;0.60;;;;;;;2.24;97.79;97198.97;29395;196;63004;-56
2022/12/02 00:55:50;;;;;;;0.60;0.60;;;;;;;2.25;97.99;97200.59;29395;224;63005;-55
2022/12/02 00:56:21;;;;;;;0.60;0.60;;;;;;;2.25;97.81;97193.38;29394;240;64013;-55
2022/12/02 00:56:52;;;;;;;0.57;0.57;;;;;;;2.24;97.84;97198.97;29395;229;63005;-64
2022/12/02 00:57:24;;;;;;;0.50;0.50;;;;;;;2.23;97.64;97198.16;29395;234;63009;-63
2022/12/02 00:57:55;;;;;;;0.60;0.60;;;;;;;2.22;97.83;97191.19;29395;232;63005;-63
2022/12/02 00:58:26;;;;;;;0.60;0.60;;;;;;;2.20;97.74;97193.28;29395;221;63009;-62
2022/12/02 00:58:57;;;;;;;0.70;0.70;;;;;;;2.24;98.13;97196.31;29394;214;64009;-62
2022/12/02 00:59:28;;;;;;;0.50;0.50;;;;;;;2.30;97.92;97190.03;29395;278;63009;-64
2022/12/02 00:59:59;;;;;;;0.60;0.60;;;;;;;2.32;97.62;97195.97;29395;236;63004;-64
2022/12/02 01:00:31;;;;;;;0.52;0.52;;;;;;;2.28;97.25;97197.47;29395;213;63013;-63
2022/12/02 01:01:03;;;;;;;0.60;0.60;;;;;;;2.26;97.25;97196.87;29395;241;63004;-55
2022/12/02 01:01:35;;;;;;;0.50;0.50;;;;;;;2.23;97.00;97194.66;29395;220;63015;-55
2022/12/02 01:02:07;;;;;;;0.60;0.60;;;;;;;2.20;97.21;97192.44;29395;197;63005;-64
2022/12/02 01:02:39;;;;;;;0.70;0.70;;;;;;;2.18;97.36;97195.38;29394;241;64004;-64
2022/12/02 01:03:11;;;;;;;0.60;0.60;;;;;;;2.16;97.82;97192.09;29394;198;64009;-56
2022/12/02 01:03:42;;;;;;;0.70;0.70;;;;;;;2.15;97.70;97195.00;29395;203;63009;-55
2022/12/02 01:04:13;;;;;;;0.50;0.50;;;;;;;2.14;97.75;97188.03;29395;203;63005;-55
2022/12/02 01:04:44;;;;;;;0.50;0.50;;;;;;;2.14;98.00;97188.03;29395;209;63009;-62
2022/12/02 01:05:17;;;;;;;0.60;0.60;;;;;;;2.16;98.20;97191.28;29395;203;63005;-63
2022/12/02 01:05:48;;;;;;;0.60;0.60;;;;;;;2.19;98.28;97180.94;29395;225;63009;-62
2022/12/02 01:06:23;;;;;;;0.60;0.60;;;;;;;2.22;98.31;97185.00;29395;225;63004;-55
2022/12/02 01:06:55;;;;;;;2.58;2.47;;;;;;;2.25;98.12;97185.34;29395;203;63009;-61
2022/12/02 01:07:26;;;;;;;0.68;0.68;;;;;;;2.36;97.48;97181.06;29394;204;64009;-65
2022/12/02 01:07:58;;;;;;;0.60;0.60;;;;;;;2.34;96.97;97183.97;29395;220;63009;-55
2022/12/02 01:08:29;;;;;;;0.60;0.60;;;;;;;2.33;96.77;97181.53;29395;224;63008;-63
2022/12/02 01:09:04;;;;;;;0.60;0.60;;;;;;;2.30;96.87;97184.66;29395;220;63008;-63
2022/12/02 01:09:35;;;;;;;0.80;0.80;;;;;;;2.34;97.20;97180.47;29395;218;63004;-55
2022/12/02 01:10:08;;;;;;;0.60;0.60;;;;;;;2.39;96.76;97185.94;29395;200;63009;-56
2022/12/02 01:10:39;;;;;;;0.60;0.60;;;;;;;2.42;96.51;97182.81;29395;230;63005;-64
2022/12/02 01:11:12;;;;;;;0.60;0.60;;;;;;;2.42;96.14;97190.84;29395;212;63009;-55
2022/12/02 01:11:43;;;;;;;0.70;0.70;;;;;;;2.39;96.32;97187.81;29395;240;63005;-55
2022/12/02 01:12:15;;;;;;;0.68;0.68;;;;;;;2.35;96.33;97190.13;29395;198;63009;-66
2022/12/02 01:12:47;;;;;;;0.60;0.60;;;;;;;2.31;96.47;97183.63;29394;287;64009;-55
2022/12/02 01:13:18;;;;;;;0.60;0.60;;;;;;;2.28;96.55;97189.44;29395;215;63009;-55
2022/12/02 01:13:50;;;;;;;0.68;0.68;;;;;;;2.26;96.70;97186.19;29395;199;63005;-65
2022/12/02 01:14:22;;;;;;;0.70;0.70;;;;;;;2.23;96.99;97183.97;29395;202;63009;-64
2022/12/02 01:14:53;;;;;;;0.60;0.60;;;;;;;2.22;97.00;97185.00;29395;199;63004;-64
2022/12/02 01:15:24;;;;;;;0.60;0.60;;;;;;;2.21;97.08;97178.84;29395;203;63009;-64
2022/12/02 01:15:56;;;;;;;0.70;0.70;;;;;;;2.17;97.34;97182.22;29395;274;63004;-64
2022/12/02 01:16:27;;;;;;;0.70;0.70;;;;;;;2.18;97.83;97189.19;29395;218;63015;-64
2022/12/02 01:16:58;;;;;;;0.60;0.60;;;;;;;2.17;97.58;97187.56;29395;222;63004;-55
2022/12/02 01:17:33;;;;;;;0.60;0.60;;;;;;;2.15;97.89;97178.94;29395;334;63009;-63
2022/12/02 01:18:07;;;;;;;1.48;1.48;;;;;;;2.16;97.93;97185.94;29394;204;64009;-55
2022/12/02 01:18:41;;;;;;;0.60;0.60;;;;;;;2.16;98.14;97188.59;29395;275;63009;-55
2022/12/02 01:19:12;;;;;;;0.60;0.60;;;;;;;2.14;98.25;97183.47;29395;293;63005;-56
2022/12/02 01:19:43;;;;;;;0.60;0.60;;;;;;;2.14;98.13;97186.16;29395;231;63009;-65
2022/12/02 01:20:15;;;;;;;0.70;0.70;;;;;;;2.14;98.37;97180.00;29395;199;63005;-56
2022/12/02 01:20:48;;;;;;;0.57;0.57;;;;;;;2.13;98.48;97184.53;29395;222;63009;-63
2022/12/02 01:21:20;;;;;;;0.60;0.60;;;;;;;2.12;98.43;97184.75;29395;220;63009;-65
2022/12/02 01:21:51;;;;;;;0.57;0.57;;;;;;;2.11;98.80;97185.81;29395;223;63009;-55
2022/12/02 01:22:22;;;;;;;0.60;0.60;;;;;;;2.11;98.69;97181.25;29395;249;63004;-64
2022/12/02 01:22:54;;;;;;;0.60;0.60;;;;;;;2.12;98.86;97184.75;29395;206;63009;-62
2022/12/02 01:23:26;;;;;;;0.70;0.70;;;;;;;2.11;99.08;97183.94;29394;226;64009;-64
2022/12/02 01:23:57;;;;;;;0.55;0.55;;;;;;;2.11;98.80;97183.13;29395;231;63008;-65
2022/12/02 01:24:28;;;;;;;0.60;0.60;;;;;;;2.12;99.12;97184.75;29395;218;63004;-65
2022/12/02 01:25:01;;;;;;;0.60;0.60;;;;;;;2.12;99.16;97190.94;29395;348;63009;-64
2022/12/02 01:25:33;;;;;;;0.52;0.52;;;;;;;2.12;99.18;97179.41;29395;202;63005;-64
2022/12/02 01:26:08;;;;;;;0.60;0.60;;;;;;;2.10;99.36;97186.84;29395;222;63009;-54
2022/12/02 01:26:39;;;;;;;0.52;0.52;;;;;;;2.09;99.60;97186.03;29395;241;63005;-55
2022/12/02 01:27:11;;;;;;;0.60;0.60;;;;;;;2.08;99.76;97171.03;29395;215;63009;-66
2022/12/02 01:27:42;;;;;;;0.57;0.57;;;;;;;2.07;99.80;97179.31;29395;216;63005;-55
2022/12/02 01:28:15;;;;;;;0.60;0.60;;;;;;;2.07;99.63;97177.44;29395;206;63009;-55
2022/12/02 01:28:47;;;;;;;0.70;0.70;;;;;;;2.09;99.82;97177.19;29394;216;64009;-65
2022/12/02 01:29:18;;;;;;;0.70;0.70;;;;;;;2.08;99.79;97175.59;29395;244;63009;-65
2022/12/02 01:29:49;;;;;;;0.60;0.60;;;;;;;2.07;99.68;97182.81;29395;233;63004;-55
2022/12/02 01:30:21;;;;;;;0.60;0.60;;;;;;;2.10;100.00;97176.16;29395;294;63009;-55
2022/12/02 01:30:52;;;;;;;0.60;0.60;;;;;;;2.23;99.61;97181.28;29395;255;63004;-57
2022/12/02 01:31:26;;;;;;;0.70;0.70;;;;;;;2.36;98.27;97175.69;29395;242;63014;-55
2022/12/02 01:31:57;;;;;;;0.70;0.70;;;;;;;2.41;97.78;97178.50;29395;267;63008;-56
2022/12/02 01:32:32;;;;;;;2.37;2.25;;;;;;;2.45;97.28;97179.63;29395;246;63005;-65
2022/12/02 01:33:03;;;;;;;0.60;0.60;;;;;;;2.43;97.04;97176.38;29395;205;63005;-55
2022/12/02 01:33:34;;;;;;;0.60;0.60;;;;;;;2.42;96.87;97179.31;29395;234;63009;-55
2022/12/02 01:34:06;;;;;;;0.60;0.60;;;;;;;2.37;97.01;97177.34;29394;225;64009;-55
2022/12/02 01:34:37;;;;;;;0.62;0.62;;;;;;;2.31;97.08;97178.25;29395;258;63009;-64
2022/12/02 01:35:08;;;;;;;0.60;0.60;;;;;;;2.27;97.22;97185.12;29395;198;63005;-55
2022/12/02 01:35:40;;;;;;;0.60;0.60;;;;;;;2.24;97.30;97183.72;29395;219;63009;-55
2022/12/02 01:36:11;;;;;;;0.55;0.55;;;;;;;2.22;97.67;97174.28;29395;290;63005;-65
2022/12/02 01:36:43;;;;;;;0.60;0.60;;;;;;;2.21;97.66;97178.03;29395;202;63009;-55
2022/12/02 01:37:15;;;;;;;0.70;0.70;;;;;;;2.20;97.93;97179.06;29395;224;63010;-55
2022/12/02 01:37:47;;;;;;;0.60;0.60;;;;;;;2.18;97.96;97181.16;29395;242;63009;-65
2022/12/02 01:38:18;;;;;;;0.60;0.60;;;;;;;2.15;98.09;97177.09;29395;197;63004;-65
2022/12/02 01:38:49;;;;;;;0.62;0.62;;;;;;;2.14;98.55;97180.81;29395;218;63009;-56
2022/12/02 01:39:20;;;;;;;0.60;0.60;;;;;;;2.11;98.65;97178.59;29394;201;64008;-56
2022/12/02 01:39:52;;;;;;;0.60;0.60;;;;;;;2.13;98.74;97181.84;29395;214;63017;-55
2022/12/02 01:40:23;;;;;;;2.15;2.05;;;;;;;2.11;98.88;97177.78;29395;226;63011;-65
2022/12/02 01:40:55;;;;;;;0.70;0.70;;;;;;;2.12;98.81;97182.09;29395;206;63009;-55
2022/12/02 01:41:26;;;;;;;0.60;0.60;;;;;;;2.18;99.25;97178.47;29395;199;63005;-54
2022/12/02 01:41:58;;;;;;;0.60;0.60;;;;;;;2.20;98.93;97179.88;29395;251;63009;-61
2022/12/02 01:42:30;;;;;;;0.60;0.60;;;;;;;2.27;98.71;97174.41;29395;278;63005;-63
2022/12/02 01:43:01;;;;;;;0.60;0.60;;;;;;;2.28;98.65;97174.19;29395;216;63009;-62
2022/12/02 01:43:34;;;;;;;0.60;0.60;;;;;;;2.31;98.49;97173.72;29395;213;63005;-55
2022/12/02 01:44:08;;;;;;;0.60;0.60;;;;;;;2.30;98.03;97176.62;29394;207;64013;-64
2022/12/02 01:44:39;;;;;;;0.60;0.60;;;;;;;2.30;98.18;97174.78;29395;204;63004;-63
2022/12/02 01:45:12;;;;;;;0.60;0.60;;;;;;;2.35;97.79;97176.75;29395;220;63016;-63
2022/12/02 01:45:43;;;;;;;0.57;0.57;;;;;;;2.35;97.56;97179.44;29395;234;63007;-64
2022/12/02 01:46:15;;;;;;;0.60;0.60;;;;;;;2.33;97.17;97170.81;29395;229;63009;-65
2022/12/02 01:46:46;;;;;;;0.70;0.70;;;;;;;2.26;97.56;97164.75;29395;211;63004;-55
2022/12/02 01:47:18;;;;;;;0.65;0.65;;;;;;;2.29;97.36;97169.66;29395;206;63008;-55
2022/12/02 01:47:52;;;;;;;0.60;0.60;;;;;;;2.28;97.46;97174.19;29395;296;63005;-64
2022/12/02 01:48:24;;;;;;;0.60;0.60;;;;;;;2.26;97.65;97170.94;29395;200;63018;-64
2022/12/02 01:48:55;;;;;;;0.60;0.60;;;;;;;2.25;97.94;97169.28;29395;199;63005;-55
2022/12/02 01:49:27;;;;;;;0.60;0.60;;;;;;;2.24;97.77;97167.66;29394;202;64013;-55
2022/12/02 01:49:59;;;;;;;0.60;0.60;;;;;;;2.22;97.87;97174.28;29395;274;63005;-63
2022/12/02 01:50:31;;;;;;;0.60;0.60;;;;;;;2.21;98.20;97172.66;29395;265;63009;-55
2022/12/02 01:51:07;;;;;;;0.60;0.60;;;;;;;2.18;98.44;97165.09;29394;217;64009;-55
2022/12/02 01:51:39;;;;;;;0.60;0.60;;;;;;;2.15;98.26;97174.41;29395;240;63004;-54
2022/12/02 01:52:11;;;;;;;0.60;0.60;;;;;;;2.14;98.59;97169.28;29395;227;63004;-62
2022/12/02 01:52:43;;;;;;;0.60;0.60;;;;;;;2.15;98.62;97173.59;29395;214;63009;-64
2022/12/02 01:53:15;;;;;;;0.70;0.70;;;;;;;2.14;98.55;97167.41;29395;214;63004;-62
2022/12/02 01:53:47;;;;;;;0.60;0.60;;;;;;;2.20;98.80;97171.03;29395;233;63009;-63
2022/12/02 01:54:18;;;;;;;0.60;0.60;;;;;;;2.21;99.00;97167.31;29395;234;63004;-62
2022/12/02 01:54:51;;;;;;;0.60;0.60;;;;;;;2.22;98.95;97168.94;29394;214;64013;-64
2022/12/02 01:55:24;;;;;;;0.70;0.70;;;;;;;2.21;98.75;97168.13;29395;267;63005;-63
2022/12/02 01:55:55;;;;;;;0.60;0.60;;;;;;;2.24;98.80;97169.53;29395;218;63009;-63
2022/12/02 01:56:27;;;;;;;0.60;0.60;;;;;;;2.26;98.88;97164.75;29395;308;63005;-55
2022/12/02 01:56:58;;;;;;;0.65;0.65;;;;;;;2.28;98.69;97162.66;29395;209;63009;-63
2022/12/02 01:57:30;;;;;;;0.70;0.70;;;;;;;2.31;98.80;97163.00;29395;273;63005;-62
2022/12/02 01:58:02;;;;;;;0.70;0.70;;;;;;;2.33;98.41;97160.09;29395;212;63009;-63
2022/12/02 01:58:35;;;;;;;0.60;0.60;;;;;;;2.33;98.41;97160.09;29395;197;63004;-60
2022/12/02 01:59:11;;;;;;;0.60;0.60;;;;;;;2.36;98.29;97159.63;29395;206;63009;-55
2022/12/02 01:59:43;;;;;;;0.60;0.60;;;;;;;2.37;98.11;97161.25;29395;224;63004;-63
2022/12/02 02:00:16;;;;;;;0.95;0.95;;;;;;;2.38;97.95;97157.53;29394;203;64013;-63
2022/12/02 02:00:50;;;;;;;0.60;0.60;;;;;;;2.35;97.55;97161.50;29395;252;63009;-54
2022/12/02 02:01:28;;;;;;;0.55;0.55;;;;;;;2.33;97.51;97160.91;29395;206;63008;-55
2022/12/02 02:02:01;;;;;;;0.60;0.60;;;;;;;2.35;97.59;97164.19;29395;224;63004;-64
2022/12/02 02:02:37;;;;;;;0.60;0.60;;;;;;;2.33;97.61;97160.09;29395;206;63009;-61
2022/12/02 02:03:08;;;;;;;0.60;0.60;;;;;;;2.33;97.84;97154.75;29395;224;63005;-55
2022/12/02 02:03:40;;;;;;;0.60;0.60;;;;;;;2.33;97.53;97160.09;29395;234;63009;-56
2022/12/02 02:04:11;;;;;;;0.60;0.60;;;;;;;2.29;97.84;97158.94;29395;202;63005;-64
2022/12/02 02:04:43;;;;;;;0.50;0.50;;;;;;;2.30;97.96;97160.56;29395;222;63009;-61
2022/12/02 02:05:21;;;;;;;0.60;0.60;;;;;;;2.37;97.85;97158.59;29395;306;63005;-55
2022/12/02 02:05:53;;;;;;;0.60;0.60;;;;;;;2.39;97.26;97159.16;29394;223;64013;-62
2022/12/02 02:06:27;;;;;;;0.60;0.60;;;;;;;2.40;97.24;97163.47;29395;243;63011;-54
2022/12/02 02:06:59;;;;;;;2.97;2.87;;;;;;;2.45;96.91;97163.56;29395;210;63009;-54
2022/12/02 02:07:31;;;;;;;0.70;0.70;;;;;;;2.46;96.74;97159.84;29395;281;63004;-62
2022/12/02 02:08:09;;;;;;;0.60;0.60;;;;;;;2.45;96.88;97155.53;29395;206;63009;-55
2022/12/02 02:08:40;;;;;;;0.60;0.60;;;;;;;2.42;96.66;97158.72;29395;228;63004;-63
2022/12/02 02:09:12;;;;;;;0.70;0.70;;;;;;;2.39;96.92;97159.16;29395;237;63008;-64
2022/12/02 02:09:43;;;;;;;0.60;0.60;;;;;;;2.34;96.79;97154.50;29395;203;63005;-63
2022/12/02 02:10:16;;;;;;;0.60;0.60;;;;;;;2.32;97.16;97155.78;29395;210;63009;-63
2022/12/02 02:10:48;;;;;;;0.60;0.60;;;;;;;2.29;97.33;97158.94;29395;296;63008;-64
2022/12/02 02:11:20;;;;;;;0.60;0.60;;;;;;;2.27;97.17;97161.03;29394;231;64002;-54
2022/12/02 02:11:56;;;;;;;0.60;0.60;;;;;;;2.25;97.46;97157.78;29395;225;63005;-55
2022/12/02 02:12:29;;;;;;;0.60;0.60;;;;;;;2.28;97.84;97152.75;29395;238;63009;-56
2022/12/02 02:13:01;;;;;;;0.62;0.62;;;;;;;2.30;97.78;97150.66;29395;263;63005;-64
2022/12/02 02:13:32;;;;;;;0.62;0.62;;;;;;;2.30;97.91;97160.56;29395;197;63013;-55
2022/12/02 02:14:06;;;;;;;1.90;1.90;;;;;;;2.30;97.73;97160.56;29395;232;63004;-55
2022/12/02 02:14:37;;;;;;;0.50;0.50;;;;;;;2.31;98.02;97157.66;29395;239;63009;-55
2022/12/02 02:15:11;;;;;;;0.60;0.60;;;;;;;2.31;98.15;97159.53;29395;199;63004;-63
2022/12/02 02:15:44;;;;;;;0.60;0.60;;;;;;;2.27;98.02;97159.16;29395;268;63009;-54
2022/12/02 02:16:16;;;;;;;0.60;0.60;;;;;;;2.27;97.98;97155.69;29395;239;63004;-54
2022/12/02 02:16:47;;;;;;;0.60;0.60;;;;;;;2.25;97.89;97157.78;29394;215;64014;-54
2022/12/02 02:17:18;;;;;;;0.62;0.62;;;;;;;2.23;98.08;97157.19;29395;245;63005;-54
2022/12/02 02:17:50;;;;;;;0.60;0.60;;;;;;;2.20;98.35;97154.97;29395;246;63009;-54
2022/12/02 02:18:22;;;;;;;0.70;0.70;;;;;;;2.18;98.34;97159.75;29395;292;63005;-63
2022/12/02 02:18:53;;;;;;;0.60;0.60;;;;;;;2.16;98.38;97153.81;29395;235;63009;-62
2022/12/02 02:19:24;;;;;;;0.52;0.52;;;;;;;2.16;98.59;97146.59;29395;257;63005;-63
2022/12/02 02:19:56;;;;;;;0.60;0.60;;;;;;;2.17;98.66;97160.78;29395;229;63009;-66
2022/12/02 02:20:28;;;;;;;0.60;0.60;;;;;;;2.16;98.90;97153.81;29395;207;63009;-54
2022/12/02 02:21:01;;;;;;;0.70;0.70;;;;;;;2.16;98.76;97161.84;29395;211;63009;-55
2022/12/02 02:21:38;;;;;;;0.70;0.70;;;;;;;2.15;99.09;97162.88;29395;268;63009;-54
2022/12/02 02:22:22;;;;;;;0.62;0.62;;;;;;;2.14;99.03;97162.06;29394;240;64013;-64
2022/12/02 02:23:16;;;;;;;0.60;0.60;;;;;;;2.13;99.23;97148.91;29395;220;63004;-55
2022/12/02 02:23:48;;;;;;;0.70;0.70;;;;;;;2.13;99.12;97155.09;29395;242;63008;-54
2022/12/02 02:24:20;;;;;;;0.70;0.70;;;;;;;2.13;99.19;97159.63;29373;197;63005;-63
2022/12/02 02:24:51;;;;;;;0.60;0.60;;;;;;;2.11;99.20;97159.03;29395;242;63009;-54
2022/12/02 02:25:22;;;;;;;0.60;0.60;;;;;;;2.10;99.27;97150.19;29395;209;63005;-65
2022/12/02 02:25:57;;;;;;;0.57;0.57;;;;;;;2.10;99.27;97155.53;29395;211;63009;-54
2022/12/02 02:26:29;;;;;;;0.70;0.70;;;;;;;2.11;99.40;97159.03;29395;213;63005;-63
2022/12/02 02:27:00;;;;;;;0.60;0.60;;;;;;;2.11;99.44;97156.34;29395;212;63009;-63
2022/12/02 02:27:31;;;;;;;0.60;0.60;;;;;;;2.14;99.85;97154.03;29394;194;64009;-64
2022/12/02 02:28:03;;;;;;;0.60;0.60;;;;;;;2.17;99.79;97160.78;29395;235;63009;-64
2022/12/02 02:28:35;;;;;;;0.60;0.60;;;;;;;2.16;99.59;97162.66;29395;227;63004;-54
2022/12/02 02:29:06;;;;;;;0.60;0.60;;;;;;;2.15;99.72;97157.53;29395;198;63009;-54
2022/12/02 02:29:37;;;;;;;0.60;0.60;;;;;;;2.15;99.60;97154.84;29395;212;63004;-54
2022/12/02 02:30:10;;;;;;;0.50;0.50;;;;;;;2.14;99.76;97161.25;29395;229;63009;-54
2022/12/02 02:30:42;;;;;;;0.60;0.60;;;;;;;2.13;99.71;97154.25;29395;303;63004;-55
2022/12/02 02:31:13;;;;;;;1.50;1.50;;;;;;;2.13;99.90;97154.25;29395;208;63008;-55
2022/12/02 02:31:44;;;;;;;0.62;0.62;;;;;;;2.13;99.89;97160.44;29395;215;63004;-54
2022/12/02 02:32:16;;;;;;;0.62;0.62;;;;;;;2.13;100.00;97159.63;29395;203;63005;-64
2022/12/02 02:32:49;;;;;;;0.62;0.62;;;;;;;2.13;100.00;97154.25;29394;205;64009;-63
2022/12/02 02:33:22;;;;;;;0.50;0.50;;;;;;;2.14;100.00;97161.25;29395;267;63009;-65
2022/12/02 02:33:53;;;;;;;0.70;0.70;;;;;;;2.13;100.00;97157.75;29395;271;63014;-63
2022/12/02 02:34:26;;;;;;;0.60;0.60;;;;;;;2.13;100.00;97148.91;29395;211;63014;-63
2022/12/02 02:34:58;;;;;;;0.60;0.60;;;;;;;2.14;100.00;97153.22;29395;214;63005;-54
2022/12/02 02:35:30;;;;;;;0.60;0.60;;;;;;;2.14;100.00;97155.91;29395;199;63009;-61
2022/12/02 02:36:04;;;;;;;0.60;0.60;;;;;;;2.15;100.00;97157.53;29395;233;63005;-54
2022/12/02 02:36:35;;;;;;;0.60;0.60;;;;;;;2.14;100.00;97156.72;29395;232;63009;-64
2022/12/02 02:37:06;;;;;;;0.70;0.70;;;;;;;2.15;100.00;97152.19;29395;205;63004;-62
2022/12/02 02:37:42;;;;;;;0.60;0.60;;;;;;;2.27;100.00;97155.69;29395;221;63026;-55
2022/12/02 02:38:23;;;;;;;0.77;0.77;;;;;;;2.36;99.19;97154.28;29394;262;64009;-55
2022/12/02 02:38:55;;;;;;;0.77;0.77;;;;;;;2.37;98.79;97145.19;29417;204;63015;-63
2022/12/02 02:39:30;;;;;;;0.57;0.57;;;;;;;2.40;98.38;97154.62;29394;210;64009;-56
2022/12/02 02:40:02;;;;;;;0.68;0.68;;;;;;;2.36;98.14;97140.88;29395;238;63009;-64
2022/12/02 02:40:34;;;;;;;0.60;0.60;;;;;;;2.33;98.38;97149.38;29395;216;63005;-63
2022/12/02 02:41:07;;;;;;;0.60;0.60;;;;;;;2.31;98.13;97151.47;29395;274;63009;-54
2022/12/02 02:41:38;;;;;;;0.57;0.57;;;;;;;2.27;98.35;97144.97;29395;301;63005;-54